Amistad — WCZ9672 — position and weather

sailwx.info

Track history (hours):
 
Tides and Currents Weather Stations Pressure Air Temp Water Temp Dewpoint Dewpoint Depression Visibility Wind Speed Wind Dir Waves Ship Positions

Amistad (United States)

Ship's website: http://www.amistadvoyages.org/

Owner: AMISTAD AMERICA, New Haven, CT. More information available from US FCC via Universal Licensing System and Coast Guard Vessel Documentation Center.

Last reported at 2018-Apr-18 13:02 UTC. Time now 2018-Apr-20 06:36 UTC.
Position N 41°13' W 072°47'.

Length 39 m; draft 3.4 m.

Type: Sailing vessel. MMSI: 369547000.

Date/timePositionNaut miles runAvg speedWind from/ knotsBaromVisibWave heightAir tempDewpointWater temp
2018-Apr-18 13:02N 41°13' W 072°47'1 6.6
2018-Apr-18 12:54N 41°13' W 072°46'1 2.0
2018-Apr-18 12:30N 41°14' W 072°45'3 6.6
2018-Apr-18 12:00N 41°14' W 072°41'3 6.2
2018-Apr-18 11:30N 41°14' W 072°37'3 6.1
2018-Apr-18 11:00N 41°14' W 072°33'3 5.7
2018-Apr-18 10:30N 41°15' W 072°29'1 0.8
2018-Apr-18 09:50N 41°16' W 072°29'0 0.0
2018-Apr-18 09:26N 41°16' W 072°29'0 0.0
2018-Apr-18 08:56N 41°16' W 072°29'0 0.0
2018-Apr-18 08:26N 41°16' W 072°29'0 0.0
2018-Apr-18 07:50N 41°16' W 072°29'0 0.0
2018-Apr-18 07:26N 41°16' W 072°29'0 0.0
2018-Apr-18 06:56N 41°16' W 072°29'0 0.0
2018-Apr-18 06:26N 41°16' W 072°29'0 0.0
2018-Apr-18 05:56N 41°16' W 072°29'0 0.0
2018-Apr-18 05:26N 41°16' W 072°29'0 0.0
2018-Apr-18 04:56N 41°16' W 072°29'0 0.0
2018-Apr-18 04:26N 41°16' W 072°29'0 0.0
2018-Apr-18 03:56N 41°16' W 072°29'0 0.0
2018-Apr-18 03:26N 41°16' W 072°29'0 0.0
2018-Apr-18 02:50N 41°16' W 072°29'0 0.0
2018-Apr-18 02:26N 41°16' W 072°29'0 0.0
2018-Apr-18 01:56N 41°16' W 072°29'0 0.0
2018-Apr-18 01:26N 41°16' W 072°29'0 0.0
2018-Apr-18 00:56N 41°16' W 072°29'0 0.0
2018-Apr-18 00:26N 41°16' W 072°29'0 0.0
2018-Apr-17 23:56N 41°16' W 072°29'0 0.1
2018-Apr-17 23:26N 41°16' W 072°29'0 0.0
2018-Apr-17 22:56N 41°16' W 072°29'0 0.3
2018-Apr-17 22:26N 41°16' W 072°29'0 0.2
2018-Apr-17 21:55N 41°16' W 072°28'1 2.1
2018-Apr-17 21:30N 41°15' W 072°29'3 5.1
2018-Apr-17 21:00N 41°15' W 072°26'3 5.1
2018-Apr-17 20:30N 41°15' W 072°22'2 4.1
2018-Apr-17 20:00N 41°15' W 072°20'2 3.5
2018-Apr-17 19:30N 41°15' W 072°17'2 3.0
2018-Apr-17 18:59N 41°14' W 072°15'3 5.3
2018-Apr-17 18:30N 41°17' W 072°15'3 5.1
2018-Apr-17 18:01N 41°16' W 072°12'1 1.7
2018-Apr-17 17:17N 41°16' W 072°10'1 3.2
2018-Apr-17 17:00N 41°15' W 072°10'  
Track history (hours):
 
Tides and Currents Weather Stations Pressure Air Temp Water Temp Dewpoint Dewpoint Depression Visibility Wind Speed Wind Dir Waves Ship Positions

Amistad (United States)

Ship's website: http://www.amistadvoyages.org/

Owner: AMISTAD AMERICA, New Haven, CT. More information available from US FCC via Universal Licensing System and Coast Guard Vessel Documentation Center.

Last reported at 2018-Apr-18 13:02 UTC. Time now 2018-Apr-20 06:36 UTC.
Position N 41°13' W 072°47'.

Length 39 m; draft 3.4 m.

Type: Sailing vessel. MMSI: 369547000.

Date/timePositionNaut miles runAvg speedWind from/ knotsBaromVisibWave heightAir tempDewpointWater temp
2018-Apr-18 13:02N 41°13' W 072°47'1 6.6
2018-Apr-18 12:54N 41°13' W 072°46'1 2.0
2018-Apr-18 12:30N 41°14' W 072°45'3 6.6
2018-Apr-18 12:00N 41°14' W 072°41'3 6.2
2018-Apr-18 11:30N 41°14' W 072°37'3 6.1
2018-Apr-18 11:00N 41°14' W 072°33'3 5.7
2018-Apr-18 10:30N 41°15' W 072°29'1 0.8
2018-Apr-18 09:50N 41°16' W 072°29'0 0.0
2018-Apr-18 09:26N 41°16' W 072°29'0 0.0
2018-Apr-18 08:56N 41°16' W 072°29'0 0.0
2018-Apr-18 08:26N 41°16' W 072°29'0 0.0
2018-Apr-18 07:50N 41°16' W 072°29'0 0.0
2018-Apr-18 07:26N 41°16' W 072°29'0 0.0
2018-Apr-18 06:56N 41°16' W 072°29'0 0.0
2018-Apr-18 06:26N 41°16' W 072°29'0 0.0
2018-Apr-18 05:56N 41°16' W 072°29'0 0.0
2018-Apr-18 05:26N 41°16' W 072°29'0 0.0
2018-Apr-18 04:56N 41°16' W 072°29'0 0.0
2018-Apr-18 04:26N 41°16' W 072°29'0 0.0
2018-Apr-18 03:56N 41°16' W 072°29'0 0.0
2018-Apr-18 03:26N 41°16' W 072°29'0 0.0
2018-Apr-18 02:50N 41°16' W 072°29'0 0.0
2018-Apr-18 02:26N 41°16' W 072°29'0 0.0
2018-Apr-18 01:56N 41°16' W 072°29'0 0.0
2018-Apr-18 01:26N 41°16' W 072°29'0 0.0
2018-Apr-18 00:56N 41°16' W 072°29'0 0.0
2018-Apr-18 00:26N 41°16' W 072°29'0 0.0
2018-Apr-17 23:56N 41°16' W 072°29'0 0.1
2018-Apr-17 23:26N 41°16' W 072°29'0 0.0
2018-Apr-17 22:56N 41°16' W 072°29'0 0.3
2018-Apr-17 22:26N 41°16' W 072°29'0 0.2
2018-Apr-17 21:55N 41°16' W 072°28'1 2.1
2018-Apr-17 21:30N 41°15' W 072°29'3 5.1
2018-Apr-17 21:00N 41°15' W 072°26'3 5.1
2018-Apr-17 20:30N 41°15' W 072°22'2 4.1
2018-Apr-17 20:00N 41°15' W 072°20'2 3.5
2018-Apr-17 19:30N 41°15' W 072°17'2 3.0
2018-Apr-17 18:59N 41°14' W 072°15'3 5.3
2018-Apr-17 18:30N 41°17' W 072°15'3 5.1
2018-Apr-17 18:01N 41°16' W 072°12'1 1.7
2018-Apr-17 17:17N 41°16' W 072°10'1 3.2
2018-Apr-17 17:00N 41°15' W 072°10'  

Dump ship's entire track history